K4BM

Wilkerson Pass Airport

Wilkerson Pass, Colorado, USA
METAR K4BM 221818Z AUTO 00000KT 10SM CLR 05/M03 A3038 RMK AO2
Observed Flight Rules
Apr-22 @ 18:18 UTC (4 minutes ago) Visual Flight Rules
Visibility Clouds
10 miles
  • Clear skies
Temperatures Readings
Current 5°C / 41°F
Dewpoint -3°C / 27°F
Humidity 57%
Altimeter 30.38" Hg
Pressure 1029 hPa
Elevation 3438
METAR K4BM 221818Z AUTO 00000KT 10SM CLR 05/M03 A3038 RMK AO2
Observed Flight Rules
Apr-22 @ 18:18 UTC
(4 minutes ago)
VFR
Clouds
  • Clear skies
Temperature Dewpoint
5°C / 41°F -3°C / 27°F
Humidity Altimeter Pressure
57% 30.38" Hg 1029 hPa